sensor_id;sensor_type;location;lat;lon;timestamp;temperature;humidity
46608;DHT22;32330;51.936;7.184;2023-06-14T03:44:31;16.60;6.50
46608;DHT22;32330;51.936;7.184;2023-06-14T03:47:00;16.70;1.00
46608;DHT22;32330;51.936;7.184;2023-06-14T03:49:28;16.70;1.00
46608;DHT22;32330;51.936;7.184;2023-06-14T03:51:56;16.60;1.00
46608;DHT22;32330;51.936;7.184;2023-06-14T03:54:24;16.70;1.00
46608;DHT22;32330;51.936;7.184;2023-06-14T03:56:53;16.70;1.00
46608;DHT22;32330;51.936;7.184;2023-06-14T03:59:20;16.60;1.00
46608;DHT22;32330;51.936;7.184;2023-06-14T04:01:49;16.60;1.00
46608;DHT22;32330;51.936;7.184;2023-06-14T04:04:16;16.60;1.00
46608;DHT22;32330;51.936;7.184;2023-06-14T04:06:44;16.60;1.00
46608;DHT22;32330;51.936;7.184;2023-06-14T04:09:14;16.60;10.90
46608;DHT22;32330;51.936;7.184;2023-06-14T04:11:41;16.60;16.20
46608;DHT22;32330;51.936;7.184;2023-06-14T04:14:08;16.60;11.00
46608;DHT22;32330;51.936;7.184;2023-06-14T04:16:35;16.60;18.20
46608;DHT22;32330;51.936;7.184;2023-06-14T04:19:04;16.60;10.10
46608;DHT22;32330;51.936;7.184;2023-06-14T04:21:30;16.60;9.60
46608;DHT22;32330;51.936;7.184;2023-06-14T04:24:01;16.60;14.80
46608;DHT22;32330;51.936;7.184;2023-06-14T04:26:29;16.60;11.10
46608;DHT22;32330;51.936;7.184;2023-06-14T04:28:59;16.60;8.20
46608;DHT22;32330;51.936;7.184;2023-06-14T04:31:29;16.70;14.80
46608;DHT22;32330;51.936;7.184;2023-06-14T04:34:00;16.70;21.30
46608;DHT22;32330;51.936;7.184;2023-06-14T04:36:28;16.80;15.00
46608;DHT22;32330;51.936;7.184;2023-06-14T04:38:55;16.90;26.70
46608;DHT22;32330;51.936;7.184;2023-06-14T04:41:25;16.90;17.80
46608;DHT22;32330;51.936;7.184;2023-06-14T04:43:57;16.90;12.00
46608;DHT22;32330;51.936;7.184;2023-06-14T04:46:27;17.00;22.00
46608;DHT22;32330;51.936;7.184;2023-06-14T04:48:55;17.00;15.40
46608;DHT22;32330;51.936;7.184;2023-06-14T04:51:23;17.10;29.60
46608;DHT22;32330;51.936;7.184;2023-06-14T04:53:57;17.10;23.30
46608;DHT22;32330;51.936;7.184;2023-06-14T04:56:25;17.20;28.50
46608;DHT22;32330;51.936;7.184;2023-06-14T04:58:53;17.20;36.70
46608;DHT22;32330;51.936;7.184;2023-06-14T05:01:22;17.30;30.80
46608;DHT22;32330;51.936;7.184;2023-06-14T05:03:50;17.30;51.20
46608;DHT22;32330;51.936;7.184;2023-06-14T05:06:17;17.40;55.50
46608;DHT22;32330;51.936;7.184;2023-06-14T05:08:45;17.40;58.50
46608;DHT22;32330;51.936;7.184;2023-06-14T05:11:14;17.50;64.90
46608;DHT22;32330;51.936;7.184;2023-06-14T05:13:42;17.70;59.50
46608;DHT22;32330;51.936;7.184;2023-06-14T05:16:11;17.70;67.10
46608;DHT22;32330;51.936;7.184;2023-06-14T05:18:41;17.80;65.10
46608;DHT22;32330;51.936;7.184;2023-06-14T05:21:09;17.90;64.70
46608;DHT22;32330;51.936;7.184;2023-06-14T05:23:37;18.10;46.90
46608;DHT22;32330;51.936;7.184;2023-06-14T05:26:04;18.20;48.80
46608;DHT22;32330;51.936;7.184;2023-06-14T05:28:33;18.20;51.80
46608;DHT22;32330;51.936;7.184;2023-06-14T05:31:01;18.40;46.10
46608;DHT22;32330;51.936;7.184;2023-06-14T05:33:28;18.40;57.70
46608;DHT22;32330;51.936;7.184;2023-06-14T05:35:55;18.40;54.80
46608;DHT22;32330;51.936;7.184;2023-06-14T05:38:22;18.60;53.40
46608;DHT22;32330;51.936;7.184;2023-06-14T05:40:49;18.70;68.70
46608;DHT22;32330;51.936;7.184;2023-06-14T05:43:16;18.80;67.90
46608;DHT22;32330;51.936;7.184;2023-06-14T05:45:45;19.00;62.00
46608;DHT22;32330;51.936;7.184;2023-06-14T05:48:13;19.00;46.10
46608;DHT22;32330;51.936;7.184;2023-06-14T05:50:39;19.10;47.20
46608;DHT22;32330;51.936;7.184;2023-06-14T05:53:06;19.20;34.60
46608;DHT22;32330;51.936;7.184;2023-06-14T05:55:33;19.30;50.30
46608;DHT22;32330;51.936;7.184;2023-06-14T05:58:01;19.50;43.40
46608;DHT22;32330;51.936;7.184;2023-06-14T06:00:27;19.50;41.80
46608;DHT22;32330;51.936;7.184;2023-06-14T06:02:56;19.60;36.80
46608;DHT22;32330;51.936;7.184;2023-06-14T06:05:23;19.70;45.90
46608;DHT22;32330;51.936;7.184;2023-06-14T06:07:51;19.80;44.80
46608;DHT22;32330;51.936;7.184;2023-06-14T06:10:17;19.90;53.80
46608;DHT22;32330;51.936;7.184;2023-06-14T06:12:45;20.10;47.40
46608;DHT22;32330;51.936;7.184;2023-06-14T06:15:13;20.20;54.40
46608;DHT22;32330;51.936;7.184;2023-06-14T06:17:40;20.30;48.60
46608;DHT22;32330;51.936;7.184;2023-06-14T06:20:09;20.50;60.00
46608;DHT22;32330;51.936;7.184;2023-06-14T06:22:37;20.60;63.30
46608;DHT22;32330;51.936;7.184;2023-06-14T06:25:05;20.70;71.40
46608;DHT22;32330;51.936;7.184;2023-06-14T06:27:32;20.60;64.20
46608;DHT22;32330;51.936;7.184;2023-06-14T06:29:59;20.70;65.90
46608;DHT22;32330;51.936;7.184;2023-06-14T06:32:26;20.90;63.00
46608;DHT22;32330;51.936;7.184;2023-06-14T06:34:53;21.00;52.00
46608;DHT22;32330;51.936;7.184;2023-06-14T06:37:21;21.00;54.60
46608;DHT22;32330;51.936;7.184;2023-06-14T06:39:48;21.10;59.70
46608;DHT22;32330;51.936;7.184;2023-06-14T06:42:15;21.10;67.00
46608;DHT22;32330;51.936;7.184;2023-06-14T06:44:43;21.40;73.40
46608;DHT22;32330;51.936;7.184;2023-06-14T06:47:10;21.30;74.30
46608;DHT22;32330;51.936;7.184;2023-06-14T06:49:37;21.40;69.20
46608;DHT22;32330;51.936;7.184;2023-06-14T06:52:05;21.30;74.60
46608;DHT22;32330;51.936;7.184;2023-06-14T06:54:34;21.40;63.90
46608;DHT22;32330;51.936;7.184;2023-06-14T06:57:01;21.60;67.60
46608;DHT22;32330;51.936;7.184;2023-06-14T06:59:28;21.80;94.80
46608;DHT22;32330;51.936;7.184;2023-06-14T07:01:55;22.10;52.90
46608;DHT22;32330;51.936;7.184;2023-06-14T07:04:22;21.90;54.40
46608;DHT22;32330;51.936;7.184;2023-06-14T07:06:50;21.90;64.60
46608;DHT22;32330;51.936;7.184;2023-06-14T07:09:17;22.10;56.30
46608;DHT22;32330;51.936;7.184;2023-06-14T07:11:47;22.10;56.30
46608;DHT22;32330;51.936;7.184;2023-06-14T07:14:15;22.40;56.00
46608;DHT22;32330;51.936;7.184;2023-06-14T07:16:42;22.70;65.30
46608;DHT22;32330;51.936;7.184;2023-06-14T07:19:10;22.60;48.90
46608;DHT22;32330;51.936;7.184;2023-06-14T07:21:37;22.60;60.90
46608;DHT22;32330;51.936;7.184;2023-06-14T07:24:05;22.60;50.20
46608;DHT22;32330;51.936;7.184;2023-06-14T07:26:33;22.50;76.60
46608;DHT22;32330;51.936;7.184;2023-06-14T07:29:02;22.90;68.40
46608;DHT22;32330;51.936;7.184;2023-06-14T07:31:29;22.80;60.40
46608;DHT22;32330;51.936;7.184;2023-06-14T07:33:57;22.80;66.30
46608;DHT22;32330;51.936;7.184;2023-06-14T07:36:24;22.70;65.70
46608;DHT22;32330;51.936;7.184;2023-06-14T07:38:51;22.90;65.20
46608;DHT22;32330;51.936;7.184;2023-06-14T07:41:18;23.10;73.40
46608;DHT22;32330;51.936;7.184;2023-06-14T07:43:45;23.20;60.90
46608;DHT22;32330;51.936;7.184;2023-06-14T07:46:14;23.20;60.00
46608;DHT22;32330;51.936;7.184;2023-06-14T07:48:41;23.10;64.70
46608;DHT22;32330;51.936;7.184;2023-06-14T07:51:07;23.10;53.60
46608;DHT22;32330;51.936;7.184;2023-06-14T07:53:34;23.20;61.20
46608;DHT22;32330;51.936;7.184;2023-06-14T07:56:02;23.10;38.70
46608;DHT22;32330;51.936;7.184;2023-06-14T07:58:29;23.30;41.80
46608;DHT22;32330;51.936;7.184;2023-06-14T08:00:56;23.40;48.70
46608;DHT22;32330;51.936;7.184;2023-06-14T08:03:24;23.60;37.40
46608;DHT22;32330;51.936;7.184;2023-06-14T08:05:52;23.60;38.90
46608;DHT22;32330;51.936;7.184;2023-06-14T08:08:19;23.70;39.40
46608;DHT22;32330;51.936;7.184;2023-06-14T08:10:46;23.70;34.40
46608;DHT22;32330;51.936;7.184;2023-06-14T08:13:13;23.90;34.50
46608;DHT22;32330;51.936;7.184;2023-06-14T08:15:40;23.90;33.70
46608;DHT22;32330;51.936;7.184;2023-06-14T08:18:08;23.80;29.70
46608;DHT22;32330;51.936;7.184;2023-06-14T08:20:36;24.10;49.30
46608;DHT22;32330;51.936;7.184;2023-06-14T08:23:03;24.00;40.90
46608;DHT22;32330;51.936;7.184;2023-06-14T08:25:30;23.80;14.60
46608;DHT22;32330;51.936;7.184;2023-06-14T08:27:59;24.00;45.00
46608;DHT22;32330;51.936;7.184;2023-06-14T08:30:26;23.70;13.70
46608;DHT22;32330;51.936;7.184;2023-06-14T08:32:53;23.70;8.00
46608;DHT22;32330;51.936;7.184;2023-06-14T08:35:21;23.70;27.80
46608;DHT22;32330;51.936;7.184;2023-06-14T08:37:50;23.80;38.80
46608;DHT22;32330;51.936;7.184;2023-06-14T08:40:19;24.20;56.10
46608;DHT22;32330;51.936;7.184;2023-06-14T08:42:51;24.30;25.10
46608;DHT22;32330;51.936;7.184;2023-06-14T08:45:19;24.30;65.90
46608;DHT22;32330;51.936;7.184;2023-06-14T08:47:47;24.50;74.30
46608;DHT22;32330;51.936;7.184;2023-06-14T08:50:20;24.20;63.10
46608;DHT22;32330;51.936;7.184;2023-06-14T08:52:54;24.00;73.10
46608;DHT22;32330;51.936;7.184;2023-06-14T08:55:23;24.20;66.90
46608;DHT22;32330;51.936;7.184;2023-06-14T08:57:54;24.30;69.90
46608;DHT22;32330;51.936;7.184;2023-06-14T09:00:22;24.20;55.10
46608;DHT22;32330;51.936;7.184;2023-06-14T09:02:50;24.30;58.00
46608;DHT22;32330;51.936;7.184;2023-06-14T09:05:22;24.60;65.10
46608;DHT22;32330;51.936;7.184;2023-06-14T09:07:51;24.80;78.20
46608;DHT22;32330;51.936;7.184;2023-06-14T09:10:18;24.50;59.40
46608;DHT22;32330;51.936;7.184;2023-06-14T09:12:47;24.60;73.30
46608;DHT22;32330;51.936;7.184;2023-06-14T09:15:14;24.60;43.50
46608;DHT22;32330;51.936;7.184;2023-06-14T09:17:42;24.60;52.00
46608;DHT22;32330;51.936;7.184;2023-06-14T09:20:10;24.50;66.60
46608;DHT22;32330;51.936;7.184;2023-06-14T09:22:44;24.50;61.10
46608;DHT22;32330;51.936;7.184;2023-06-14T09:25:13;24.80;30.40
46608;DHT22;32330;51.936;7.184;2023-06-14T09:27:41;25.00;27.40
46608;DHT22;32330;51.936;7.184;2023-06-14T09:30:09;25.00;12.10
46608;DHT22;32330;51.936;7.184;2023-06-14T09:32:37;24.90;27.60
46608;DHT22;32330;51.936;7.184;2023-06-14T09:35:06;24.90;19.40
46608;DHT22;32330;51.936;7.184;2023-06-14T09:37:34;25.20;22.60
46608;DHT22;32330;51.936;7.184;2023-06-14T09:40:01;25.00;16.90
46608;DHT22;32330;51.936;7.184;2023-06-14T09:42:31;25.00;24.50
46608;DHT22;32330;51.936;7.184;2023-06-14T09:45:02;25.20;31.10
46608;DHT22;32330;51.936;7.184;2023-06-14T09:47:29;25.40;22.60
46608;DHT22;32330;51.936;7.184;2023-06-14T09:49:56;25.80;27.90
46608;DHT22;32330;51.936;7.184;2023-06-14T09:52:23;25.70;38.80
46608;DHT22;32330;51.936;7.184;2023-06-14T09:54:52;25.40;31.80
46608;DHT22;32330;51.936;7.184;2023-06-14T09:57:22;25.40;28.70
46608;DHT22;32330;51.936;7.184;2023-06-14T09:59:53;25.70;30.00
46608;DHT22;32330;51.936;7.184;2023-06-14T10:02:24;25.90;25.30
46608;DHT22;32330;51.936;7.184;2023-06-14T10:04:56;26.20;26.50
46608;DHT22;32330;51.936;7.184;2023-06-14T10:07:26;26.20;25.80
46608;DHT22;32330;51.936;7.184;2023-06-14T10:09:56;25.80;24.10
46608;DHT22;32330;51.936;7.184;2023-06-14T10:12:24;25.90;20.30
46608;DHT22;32330;51.936;7.184;2023-06-14T10:14:54;25.80;27.40
46608;DHT22;32330;51.936;7.184;2023-06-14T10:17:34;26.30;24.50
46608;DHT22;32330;51.936;7.184;2023-06-14T10:20:17;26.60;19.20
46608;DHT22;32330;51.936;7.184;2023-06-14T10:22:50;27.00;28.50
46608;DHT22;32330;51.936;7.184;2023-06-14T10:25:27;26.60;21.30
46608;DHT22;32330;51.936;7.184;2023-06-14T10:28:03;26.70;19.90
46608;DHT22;32330;51.936;7.184;2023-06-14T10:30:32;27.30;25.00
46608;DHT22;32330;51.936;7.184;2023-06-14T10:33:06;26.90;24.00
46608;DHT22;32330;51.936;7.184;2023-06-14T10:35:34;26.70;17.60
46608;DHT22;32330;51.936;7.184;2023-06-14T10:38:07;26.30;16.90
46608;DHT22;32330;51.936;7.184;2023-06-14T10:40:36;26.00;19.00
46608;DHT22;32330;51.936;7.184;2023-06-14T10:43:21;26.50;30.30
46608;DHT22;32330;51.936;7.184;2023-06-14T10:46:14;26.70;21.50
46608;DHT22;32330;51.936;7.184;2023-06-14T10:48:47;27.30;21.70
46608;DHT22;32330;51.936;7.184;2023-06-14T10:51:23;27.60;42.70
46608;DHT22;32330;51.936;7.184;2023-06-14T10:53:59;27.40;39.40
46608;DHT22;32330;51.936;7.184;2023-06-14T10:56:27;27.30;23.90
46608;DHT22;32330;51.936;7.184;2023-06-14T10:58:56;27.00;37.40
46608;DHT22;32330;51.936;7.184;2023-06-14T11:01:37;27.50;28.30
46608;DHT22;32330;51.936;7.184;2023-06-14T11:04:08;27.60;41.10
46608;DHT22;32330;51.936;7.184;2023-06-14T11:06:47;27.20;26.90
46608;DHT22;32330;51.936;7.184;2023-06-14T11:09:38;27.60;32.20
46608;DHT22;32330;51.936;7.184;2023-06-14T11:12:11;27.50;35.20
46608;DHT22;32330;51.936;7.184;2023-06-14T11:14:38;27.00;13.10
46608;DHT22;32330;51.936;7.184;2023-06-14T11:17:07;27.50;29.80
46608;DHT22;32330;51.936;7.184;2023-06-14T11:19:34;27.60;26.90
46608;DHT22;32330;51.936;7.184;2023-06-14T11:22:01;27.80;34.50
46608;DHT22;32330;51.936;7.184;2023-06-14T11:24:29;28.00;23.90
46608;DHT22;32330;51.936;7.184;2023-06-14T11:26:56;28.10;29.60
46608;DHT22;32330;51.936;7.184;2023-06-14T11:29:23;28.20;49.30
46608;DHT22;32330;51.936;7.184;2023-06-14T11:31:51;28.00;33.80
46608;DHT22;32330;51.936;7.184;2023-06-14T11:34:20;28.20;33.70
46608;DHT22;32330;51.936;7.184;2023-06-14T11:36:47;27.60;38.30
46608;DHT22;32330;51.936;7.184;2023-06-14T11:39:14;28.40;34.30
46608;DHT22;32330;51.936;7.184;2023-06-14T11:41:42;28.40;36.00
46608;DHT22;32330;51.936;7.184;2023-06-14T11:44:10;28.30;40.80
46608;DHT22;32330;51.936;7.184;2023-06-14T11:46:37;28.20;33.30
46608;DHT22;32330;51.936;7.184;2023-06-14T11:49:04;28.30;38.10
46608;DHT22;32330;51.936;7.184;2023-06-14T11:51:36;28.30;38.30
46608;DHT22;32330;51.936;7.184;2023-06-14T11:54:04;27.90;28.20
46608;DHT22;32330;51.936;7.184;2023-06-14T11:56:32;28.20;38.60
46608;DHT22;32330;51.936;7.184;2023-06-14T11:59:03;28.70;35.30
46608;DHT22;32330;51.936;7.184;2023-06-14T12:01:31;28.70;39.40
46608;DHT22;32330;51.936;7.184;2023-06-14T12:03:59;28.70;50.80
46608;DHT22;32330;51.936;7.184;2023-06-14T12:06:27;29.20;58.80
46608;DHT22;32330;51.936;7.184;2023-06-14T12:09:05;29.20;48.30
46608;DHT22;32330;51.936;7.184;2023-06-14T12:11:32;29.10;55.00
46608;DHT22;32330;51.936;7.184;2023-06-14T12:14:00;29.00;50.80
46608;DHT22;32330;51.936;7.184;2023-06-14T12:16:32;28.80;31.00
46608;DHT22;32330;51.936;7.184;2023-06-14T12:19:09;28.50;42.60
46608;DHT22;32330;51.936;7.184;2023-06-14T12:21:38;29.00;37.40
46608;DHT22;32330;51.936;7.184;2023-06-14T12:24:07;29.20;34.40
46608;DHT22;32330;51.936;7.184;2023-06-14T12:26:38;29.20;69.90
46608;DHT22;32330;51.936;7.184;2023-06-14T12:29:07;29.30;44.90
46608;DHT22;32330;51.936;7.184;2023-06-14T12:31:34;29.30;34.50
46608;DHT22;32330;51.936;7.184;2023-06-14T12:34:01;29.40;31.20
46608;DHT22;32330;51.936;7.184;2023-06-14T12:36:28;29.50;35.60
46608;DHT22;32330;51.936;7.184;2023-06-14T12:38:55;29.40;33.00
46608;DHT22;32330;51.936;7.184;2023-06-14T12:41:23;29.20;30.80
46608;DHT22;32330;51.936;7.184;2023-06-14T12:43:52;29.40;36.70
46608;DHT22;32330;51.936;7.184;2023-06-14T12:46:19;29.60;28.70
46608;DHT22;32330;51.936;7.184;2023-06-14T12:48:47;29.90;29.20
46608;DHT22;32330;51.936;7.184;2023-06-14T12:51:14;30.00;26.30
46608;DHT22;32330;51.936;7.184;2023-06-14T12:53:41;30.00;37.80
46608;DHT22;32330;51.936;7.184;2023-06-14T12:56:08;30.10;31.80
46608;DHT22;32330;51.936;7.184;2023-06-14T12:58:36;30.10;33.50
46608;DHT22;32330;51.936;7.184;2023-06-14T13:01:03;30.60;40.00
46608;DHT22;32330;51.936;7.184;2023-06-14T13:03:30;29.90;40.00
46608;DHT22;32330;51.936;7.184;2023-06-14T13:05:59;30.00;23.00
46608;DHT22;32330;51.936;7.184;2023-06-14T13:08:26;30.40;33.60
46608;DHT22;32330;51.936;7.184;2023-06-14T13:10:53;30.60;48.00
46608;DHT22;32330;51.936;7.184;2023-06-14T13:13:20;30.10;39.20
46608;DHT22;32330;51.936;7.184;2023-06-14T13:15:49;30.10;48.00
46608;DHT22;32330;51.936;7.184;2023-06-14T13:18:16;30.10;32.40
46608;DHT22;32330;51.936;7.184;2023-06-14T13:20:45;29.90;23.60
46608;DHT22;32330;51.936;7.184;2023-06-14T13:23:12;30.20;26.00
46608;DHT22;32330;51.936;7.184;2023-06-14T13:25:39;30.40;23.00
46608;DHT22;32330;51.936;7.184;2023-06-14T13:28:06;30.50;28.80
46608;DHT22;32330;51.936;7.184;2023-06-14T13:30:33;30.30;24.20
46608;DHT22;32330;51.936;7.184;2023-06-14T13:33:02;30.30;29.70
46608;DHT22;32330;51.936;7.184;2023-06-14T13:35:29;30.30;25.50
46608;DHT22;32330;51.936;7.184;2023-06-14T13:37:56;30.70;36.80
46608;DHT22;32330;51.936;7.184;2023-06-14T13:40:23;30.50;39.90
46608;DHT22;32330;51.936;7.184;2023-06-14T13:42:50;30.70;53.30
46608;DHT22;32330;51.936;7.184;2023-06-14T13:45:17;30.80;38.00
46608;DHT22;32330;51.936;7.184;2023-06-14T13:47:44;30.70;26.30
46608;DHT22;32330;51.936;7.184;2023-06-14T13:50:15;30.90;29.30
46608;DHT22;32330;51.936;7.184;2023-06-14T13:52:43;31.00;17.60
46608;DHT22;32330;51.936;7.184;2023-06-14T13:55:10;30.60;29.60
46608;DHT22;32330;51.936;7.184;2023-06-14T13:57:37;30.60;19.40
46608;DHT22;32330;51.936;7.184;2023-06-14T14:00:06;30.70;39.70
46608;DHT22;32330;51.936;7.184;2023-06-14T14:02:41;30.80;33.90
46608;DHT22;32330;51.936;7.184;2023-06-14T14:05:09;30.90;31.60
46608;DHT22;32330;51.936;7.184;2023-06-14T14:07:37;30.70;58.50
46608;DHT22;32330;51.936;7.184;2023-06-14T14:10:06;31.00;48.00
46608;DHT22;32330;51.936;7.184;2023-06-14T14:12:33;31.00;50.70
46608;DHT22;32330;51.936;7.184;2023-06-14T14:15:01;30.60;62.10
46608;DHT22;32330;51.936;7.184;2023-06-14T14:17:29;30.40;49.60
46608;DHT22;32330;51.936;7.184;2023-06-14T14:19:56;30.20;59.40
46608;DHT22;32330;51.936;7.184;2023-06-14T14:22:23;30.60;57.70
46608;DHT22;32330;51.936;7.184;2023-06-14T14:24:52;31.30;69.10
46608;DHT22;32330;51.936;7.184;2023-06-14T14:27:19;31.30;68.60
46608;DHT22;32330;51.936;7.184;2023-06-14T14:29:46;31.40;69.10
46608;DHT22;32330;51.936;7.184;2023-06-14T14:32:13;31.40;59.10
46608;DHT22;32330;51.936;7.184;2023-06-14T14:34:40;30.70;62.20
46608;DHT22;32330;51.936;7.184;2023-06-14T14:37:07;30.60;61.40
46608;DHT22;32330;51.936;7.184;2023-06-14T14:39:36;31.00;59.60
46608;DHT22;32330;51.936;7.184;2023-06-14T14:42:05;31.30;69.30
46608;DHT22;32330;51.936;7.184;2023-06-14T14:44:33;30.90;60.20
46608;DHT22;32330;51.936;7.184;2023-06-14T14:47:00;31.10;90.30
46608;DHT22;32330;51.936;7.184;2023-06-14T14:49:28;31.00;87.30
46608;DHT22;32330;51.936;7.184;2023-06-14T14:51:55;30.80;81.70
46608;DHT22;32330;51.936;7.184;2023-06-14T14:54:23;31.30;97.20
46608;DHT22;32330;51.936;7.184;2023-06-14T14:56:51;31.50;70.30
46608;DHT22;32330;51.936;7.184;2023-06-14T14:59:19;31.50;68.80
46608;DHT22;32330;51.936;7.184;2023-06-14T15:01:47;30.90;89.20
46608;DHT22;32330;51.936;7.184;2023-06-14T15:04:14;30.20;90.40
46608;DHT22;32330;51.936;7.184;2023-06-14T15:06:41;30.60;83.20
46608;DHT22;32330;51.936;7.184;2023-06-14T15:09:08;30.40;77.80
46608;DHT22;32330;51.936;7.184;2023-06-14T15:11:35;30.90;66.80
46608;DHT22;32330;51.936;7.184;2023-06-14T15:14:02;30.70;79.20
46608;DHT22;32330;51.936;7.184;2023-06-14T15:16:31;30.30;72.00
46608;DHT22;32330;51.936;7.184;2023-06-14T15:18:58;29.80;92.70
46608;DHT22;32330;51.936;7.184;2023-06-14T15:21:25;30.00;85.60
46608;DHT22;32330;51.936;7.184;2023-06-14T15:23:52;30.20;58.40
46608;DHT22;32330;51.936;7.184;2023-06-14T15:26:19;30.20;72.10
46608;DHT22;32330;51.936;7.184;2023-06-14T15:28:46;30.30;71.10
46608;DHT22;32330;51.936;7.184;2023-06-14T15:31:13;29.80;54.60
46608;DHT22;32330;51.936;7.184;2023-06-14T15:33:42;29.70;63.20
46608;DHT22;32330;51.936;7.184;2023-06-14T15:36:10;30.10;58.30
46608;DHT22;32330;51.936;7.184;2023-06-14T15:38:37;30.60;65.00
46608;DHT22;32330;51.936;7.184;2023-06-14T15:41:04;30.30;74.30
46608;DHT22;32330;51.936;7.184;2023-06-14T15:43:33;30.30;54.10
46608;DHT22;32330;51.936;7.184;2023-06-14T15:46:00;29.60;66.20
46608;DHT22;32330;51.936;7.184;2023-06-14T15:48:27;29.80;64.90
46608;DHT22;32330;51.936;7.184;2023-06-14T15:50:56;30.20;67.00
46608;DHT22;32330;51.936;7.184;2023-06-14T15:53:23;30.60;83.40
46608;DHT22;32330;51.936;7.184;2023-06-14T15:55:50;31.20;72.50
46608;DHT22;32330;51.936;7.184;2023-06-14T15:58:17;31.20;60.90
46608;DHT22;32330;51.936;7.184;2023-06-14T16:00:44;30.70;48.20
46608;DHT22;32330;51.936;7.184;2023-06-14T16:03:11;30.20;69.70
46608;DHT22;32330;51.936;7.184;2023-06-14T16:05:38;30.20;98.60
46608;DHT22;32330;51.936;7.184;2023-06-14T16:08:07;30.10;98.80
46608;DHT22;32330;51.936;7.184;2023-06-14T16:10:34;30.20;99.90
46608;DHT22;32330;51.936;7.184;2023-06-14T16:13:02;30.30;99.90
46608;DHT22;32330;51.936;7.184;2023-06-14T16:15:29;30.30;99.90
46608;DHT22;32330;51.936;7.184;2023-06-14T16:17:56;30.10;99.90
46608;DHT22;32330;51.936;7.184;2023-06-14T16:20:23;30.30;95.70
46608;DHT22;32330;51.936;7.184;2023-06-14T16:22:50;30.70;97.80
46608;DHT22;32330;51.936;7.184;2023-06-14T16:25:19;30.30;98.50
46608;DHT22;32330;51.936;7.184;2023-06-14T16:27:47;30.50;98.00
46608;DHT22;32330;51.936;7.184;2023-06-14T16:30:15;30.50;98.60
46608;DHT22;32330;51.936;7.184;2023-06-14T16:32:43;30.70;99.90
46608;DHT22;32330;51.936;7.184;2023-06-14T16:35:13;30.20;99.90
46608;DHT22;32330;51.936;7.184;2023-06-14T16:37:40;30.00;99.90
46608;DHT22;32330;51.936;7.184;2023-06-14T16:40:08;29.50;99.90
46608;DHT22;32330;51.936;7.184;2023-06-14T16:42:40;29.60;99.90
46608;DHT22;32330;51.936;7.184;2023-06-14T16:45:10;29.70;99.90
46608;DHT22;32330;51.936;7.184;2023-06-14T16:47:37;29.00;99.90
46608;DHT22;32330;51.936;7.184;2023-06-14T16:50:05;28.70;99.90
46608;DHT22;32330;51.936;7.184;2023-06-14T16:52:32;28.60;99.90
46608;DHT22;32330;51.936;7.184;2023-06-14T16:55:00;28.80;99.90
46608;DHT22;32330;51.936;7.184;2023-06-14T16:57:27;29.20;99.90
46608;DHT22;32330;51.936;7.184;2023-06-14T16:59:55;29.30;99.90
46608;DHT22;32330;51.936;7.184;2023-06-14T17:02:23;28.90;99.90
46608;DHT22;32330;51.936;7.184;2023-06-14T17:04:50;28.70;99.90
46608;DHT22;32330;51.936;7.184;2023-06-14T17:07:17;28.40;99.90
46608;DHT22;32330;51.936;7.184;2023-06-14T17:09:45;28.20;99.90
46608;DHT22;32330;51.936;7.184;2023-06-14T17:12:13;28.10;99.90
46608;DHT22;32330;51.936;7.184;2023-06-14T17:14:40;28.10;99.90
46608;DHT22;32330;51.936;7.184;2023-06-14T17:17:09;28.00;99.90
46608;DHT22;32330;51.936;7.184;2023-06-14T17:19:36;28.00;99.90
46608;DHT22;32330;51.936;7.184;2023-06-14T17:22:04;27.80;99.90
46608;DHT22;32330;51.936;7.184;2023-06-14T17:24:33;27.60;99.90
46608;DHT22;32330;51.936;7.184;2023-06-14T17:27:00;27.70;93.90
46608;DHT22;32330;51.936;7.184;2023-06-14T17:29:28;27.70;99.80
46608;DHT22;32330;51.936;7.184;2023-06-14T17:31:55;27.50;99.90
46608;DHT22;32330;51.936;7.184;2023-06-14T17:34:23;27.60;93.90
46608;DHT22;32330;51.936;7.184;2023-06-14T17:36:50;27.30;70.80
46608;DHT22;32330;51.936;7.184;2023-06-14T17:39:17;27.20;93.60
46608;DHT22;32330;51.936;7.184;2023-06-14T17:41:45;26.90;85.90
46608;DHT22;32330;51.936;7.184;2023-06-14T17:44:12;26.90;99.90
46608;DHT22;32330;51.936;7.184;2023-06-14T17:46:39;26.80;99.90
46608;DHT22;32330;51.936;7.184;2023-06-14T17:49:06;26.70;99.90
46608;DHT22;32330;51.936;7.184;2023-06-14T17:51:34;26.50;86.50
46608;DHT22;32330;51.936;7.184;2023-06-14T17:54:02;26.40;99.90
46608;DHT22;32330;51.936;7.184;2023-06-14T17:56:29;26.20;99.90
46608;DHT22;32330;51.936;7.184;2023-06-14T17:58:56;26.20;97.60
46608;DHT22;32330;51.936;7.184;2023-06-14T18:01:23;26.30;90.10
46608;DHT22;32330;51.936;7.184;2023-06-14T18:03:51;26.30;99.70
46608;DHT22;32330;51.936;7.184;2023-06-14T18:06:18;26.20;99.90
46608;DHT22;32330;51.936;7.184;2023-06-14T18:08:46;26.20;85.80
46608;DHT22;32330;51.936;7.184;2023-06-14T18:11:13;26.30;99.90
46608;DHT22;32330;51.936;7.184;2023-06-14T18:13:41;26.20;99.90
46608;DHT22;32330;51.936;7.184;2023-06-14T18:16:08;26.10;96.90
46608;DHT22;32330;51.936;7.184;2023-06-14T18:18:35;26.10;87.00
46608;DHT22;32330;51.936;7.184;2023-06-14T18:21:02;26.00;95.80
46608;DHT22;32330;51.936;7.184;2023-06-14T18:23:29;25.90;84.20
46608;DHT22;32330;51.936;7.184;2023-06-14T18:25:58;25.80;94.40
46608;DHT22;32330;51.936;7.184;2023-06-14T18:28:25;25.80;86.50
46608;DHT22;32330;51.936;7.184;2023-06-14T18:30:52;25.80;84.60
46608;DHT22;32330;51.936;7.184;2023-06-14T18:33:19;25.70;87.00
46608;DHT22;32330;51.936;7.184;2023-06-14T18:35:46;25.70;91.20
46608;DHT22;32330;51.936;7.184;2023-06-14T18:38:13;25.60;90.10
46608;DHT22;32330;51.936;7.184;2023-06-14T18:40:40;25.40;79.40
46608;DHT22;32330;51.936;7.184;2023-06-14T18:43:09;25.40;85.70
46608;DHT22;32330;51.936;7.184;2023-06-14T18:45:37;25.30;77.10
46608;DHT22;32330;51.936;7.184;2023-06-14T18:48:04;25.10;73.90
46608;DHT22;32330;51.936;7.184;2023-06-14T18:50:31;25.00;89.40
46608;DHT22;32330;51.936;7.184;2023-06-14T18:52:58;25.10;73.50
46608;DHT22;32330;51.936;7.184;2023-06-14T18:55:25;24.90;75.50
46608;DHT22;32330;51.936;7.184;2023-06-14T18:57:53;24.90;85.60
46608;DHT22;32330;51.936;7.184;2023-06-14T19:00:22;24.80;74.80
46608;DHT22;32330;51.936;7.184;2023-06-14T19:02:50;24.70;77.60
46608;DHT22;32330;51.936;7.184;2023-06-14T19:05:17;24.60;78.50
46608;DHT22;32330;51.936;7.184;2023-06-14T19:07:44;24.50;83.80
46608;DHT22;32330;51.936;7.184;2023-06-14T19:10:11;24.40;87.00
46608;DHT22;32330;51.936;7.184;2023-06-14T19:12:38;24.20;88.40
46608;DHT22;32330;51.936;7.184;2023-06-14T19:15:06;24.20;93.40
46608;DHT22;32330;51.936;7.184;2023-06-14T19:17:34;24.20;94.10
46608;DHT22;32330;51.936;7.184;2023-06-14T19:20:01;24.00;77.70
46608;DHT22;32330;51.936;7.184;2023-06-14T19:22:30;24.00;80.20